CA-0101 weather

CLOSED Cowpar Airport
Alberta, Canada

Public forecast

Using degrees Celsius for public forecast. Weather courtesy of forecast.io.

Closest aviation weather report (METAR) to Cowpar Airport

Closest report is Fort McMurray Airport, 48.6 nm (90.0 km) NNW. Retrieved 2020/07/07 02:00 UTC (25 minutes ago):

CYMM 070200Z AUTO 19004KT 150V240 9SM BKN075 23/09 A2980 RMK SLP097 DENSITY ALT 2500FT

Closest aviation forecast (TAF) to Cowpar Airport

Closest forecast is Fort McMurray Airport, 48.6 nm (90.0 km) NNW. Retrieved 2020-07-07 01:42 UTC (43 minutes ago):

TAF TAF CYMM 070039Z 0701/0713 23008KT P6SM SCT080 TEMPO 0701/0713 P6SM VCSH SCT060 BKN080 BECMG 0706/0708 VRB03KT RMK FCST BASED ON AUTO OBS NXT FCST BY 070700Z